To NAV CANADA Home Page Login to a new session Search on AWWS site Disclaimer Vers la page française équivalente Tips FAQ What's new on the site To the Forecasts and Observations / NOTAM section To "File a Flight Plan" website Publications and other links Update of the User's profile FIC Telephone Numbers My Weather Data Folder Route Weather Data Regional Weather Data Local Weather Data To the Forecasts and Observations / NOTAM section
Request Generated 11/13/2018 at 18:42:11 UTC . Weather information available at that time is displayed.

METAR/TAF

YORKTON MUNICIPALITY/SK    (show WxCam)

METAR CYQV 131800Z AUTO 19005KT 9SM BKN044 OVC055 M07/M10 A3018 RMK SLP262=
METAR CYQV 131700Z AUTO 18006KT 9SM OVC060 M08/M11 A3020 RMK SLP270=
METAR CYQV 131600Z AUTO 18009KT 9SM BKN046 OVC055 M09/M12 A3021 RMK SLP273=

TAF CYQV 131738Z 1318/1406 18006KT P6SM SCT030 BKN060 OVC120 TEMPO
1318/1320 4SM -SN BKN030
FM132000 09008KT P6SM SCT020 BKN040 BKN120 TEMPO 1320/1403 4SM
-SN BKN020 OVC040
FM140300 14008KT P6SM BKN012 TEMPO 1403/1406 4SM -SN BR OVC008
RMK FCST BASED ON AUTO OBS. NXT FCST BY 140000Z=
Your time UTC time
Weather data provided by Environment Canada and NAV CANADA